Flight Track Log - Related Links

Times and Time Zones

All times are in EDT time to prevent confusion due to time zone crossing. See the PDT4244 flight status page for this flight to view local times or setup timezone preferences in your user account.


Time Position Orientation Groundspeed Altitude Reporting Facility
EDT Latitude Longitude Course Direction KTS MPH feet Rate Location/Type
Mon 06:21:15 PM 38.3551 -82.5536 269° West  Level FlightAware Approximate
Mon 06:22:15 PM 38.3077 -82.5331 307° West  Level FlightAware Approximate
Mon 06:23:11 PM 38.3542 -82.6117 171° South 157 181 3,300  Level Indianapolis Center
Mon 06:24:11 PM 38.3039 -82.6017 167° South 181 208 5,000 1,550 Climbing Indianapolis Center
Mon 06:25:11 PM 38.2517 -82.5864 164° South 190 219 6,400 1,400 Climbing Indianapolis Center
Mon 06:26:11 PM 38.2014 -82.5686 164° South 190 219 7,800 1,350 Climbing Indianapolis Center
Mon 06:27:11 PM 38.1533 -82.5508 168° South 190 219 9,100 1,400 Climbing Indianapolis Center
Mon 06:28:11 PM 38.0989 -82.5356 169° South 196 226 10,600 1,350 Climbing Indianapolis Center
Mon 06:29:11 PM 38.0406 -82.5206 170° South 207 238 11,800 1,200 Climbing Indianapolis Center
Mon 06:30:11 PM 37.9778 -82.5058 170° South 215 247 13,000 1,200 Climbing Indianapolis Center
Mon 06:31:11 PM 37.9131 -82.4908 170° South 235 270 14,200 1,200 Climbing Indianapolis Center
Mon 06:32:11 PM 37.8461 -82.4761 168° South 240 276 15,400 1,150 Climbing Indianapolis Center
Mon 06:33:11 PM 37.7811 -82.4586 168° South 240 276 16,500 1,100 Climbing Indianapolis Center
Mon 06:34:11 PM 37.7164 -82.4411 169° South 240 276 17,600 1,050 Climbing Indianapolis Center
Mon 06:35:11 PM 37.6536 -82.4264 168° South 240 276 18,600 700 Climbing Indianapolis Center
Mon 06:36:11 PM 37.5867 -82.4092 169° South 240 276 19,000 200 Climbing Indianapolis Center
Mon 06:37:11 PM 37.5136 -82.3919 167° South 261 300 19,000  Level Indianapolis Center
Mon 06:38:11 PM 37.4383 -82.3694 170° South 279 321 19,000  Level Indianapolis Center
Mon 06:39:11 PM 37.3589 -82.3525 169° South 284 327 19,000  Level Indianapolis Center
Mon 06:40:11 PM 37.2794 -82.3328 169° South 291 335 19,000  Level Indianapolis Center
Mon 06:41:16 PM 37.1825 -82.3089 167° South 308 354 19,000  Level Atlanta Center
Mon 06:42:16 PM 37.1050 -82.2872 168° South 295 339 19,000  Level Atlanta Center
Mon 06:43:16 PM 37.0233 -82.2658 169° South 295 339 19,000  Level Atlanta Center
Mon 06:44:16 PM 36.9522 -82.2492 168° South 295 339 19,000  Level Atlanta Center
Mon 06:45:16 PM 36.8708 -82.2278 171° South 295 339 19,000 -100 Level Atlanta Center
Mon 06:46:16 PM 36.7914 -82.2114 168° South 295 339 18,800 -550 Descending Atlanta Center
Mon 06:47:16 PM 36.7075 -82.1900 170° South 303 349 17,900 -800 Descending Atlanta Center
Mon 06:48:16 PM 36.6197 -82.1714 170° South 319 367 17,200 -700 Descending Atlanta Center
Mon 06:49:16 PM 36.5317 -82.1528 170° South 319 367 16,500 -700 Descending Atlanta Center
Mon 06:50:16 PM 36.4461 -82.1342 153° Southeast 314 361 15,800 -700 Descending Atlanta Center
Mon 06:51:16 PM 36.3661 -82.0844 151° Southeast 319 367 15,100 -700 Descending Atlanta Center
Mon 06:52:16 PM 36.2900 -82.0322 150° Southeast 319 367 14,400 -700 Descending Atlanta Center
Mon 06:53:16 PM 36.2056 -81.9725 152° Southeast 314 361 13,700 -700 Descending Atlanta Center
Mon 06:54:16 PM 36.1256 -81.9206 152° Southeast 319 367 13,000 -700 Descending Atlanta Center
Mon 06:55:16 PM 36.0453 -81.8686 153° Southeast 319 367 12,300 -700 Descending Atlanta Center
Mon 06:56:16 PM 35.9672 -81.8194 154° Southeast 324 373 11,600 -650 Descending Atlanta Center
Mon 06:57:16 PM 35.8914 -81.7728 153° Southeast 324 373 11,000 -250 Descending Atlanta Center
Mon 06:58:16 PM 35.8175 -81.7264 150° Southeast 313 360 11,100 60 Climbing Atlanta Center
Mon 06:58:56 PM 35.7731 -81.6942 152° Southeast 289 333 11,100  Level Atlanta Center
Mon 06:59:32 PM 35.7286 -81.6647 153° Southeast 289 333 11,100  Level Atlanta Center
Mon 07:00:16 PM 35.6822 -81.6356 153° Southeast 293 337 11,100  Level Atlanta Center
Mon 07:01:16 PM 35.6125 -81.5917 135° Southeast 288 331 11,100  Level Atlanta Center
Mon 07:02:16 PM 35.5592 -81.5267 128° Southeast 278 320 11,100 -250 Level Atlanta Center
Mon 07:03:16 PM 35.5136 -81.4542 125° Southeast 272 313 10,600 -600 Descending Atlanta Center
Mon 07:04:16 PM 35.4661 -81.3717 126° Southeast 289 333 9,900 -750 Descending Atlanta Center
Mon 07:05:16 PM 35.4183 -81.2917 110° East 289 333 9,100 -450 Descending Atlanta Center
Mon 07:06:16 PM 35.3914 -81.2008 106° East 277 319 9,000 -50 Descending Atlanta Center
Mon 07:07:16 PM 35.3692 -81.1078 109° East 268 308 9,000  Level FAA TRACON SMA TRACON (SMA)
Mon 07:07:56 PM 35.3547 -81.0553 109° East 264 304 9,000  Level FAA TRACON SMA TRACON (SMA)
Mon 07:08:36 PM 35.3381 -80.9964 109° East 264 304 9,000  Level FAA TRACON SMA TRACON (SMA)
Mon 07:09:16 PM 35.3228 -80.9414 136° Southeast 265 305 9,000  Level FAA TRACON SMA TRACON (SMA)
Mon 07:09:56 PM 35.2861 -80.8986 146° Southeast 271 312 9,000  Level FAA TRACON SMA TRACON (SMA)
Mon 07:10:36 PM 35.2425 -80.8622 169° South 269 310 9,000 -675 Level FAA TRACON SMA TRACON (SMA)
Mon 07:11:16 PM 35.1953 -80.8508 169° South 269 310 8,100 -1,556 Descending FAA TRACON SMA TRACON (SMA)
Mon 07:11:57 PM 35.1408 -80.8378 170° South 263 303 6,900 -1,800 Descending FAA TRACON SMA TRACON (SMA)
Mon 07:12:36 PM 35.0986 -80.8286 188° South 252 290 5,700 -1,975 Descending FAA TRACON SMA TRACON (SMA)
Mon 07:13:16 PM 35.0556 -80.8358 261° West 235 270 4,300 -1,671 Descending FAA TRACON SMA TRACON (SMA)
Mon 07:13:55 PM 35.0508 -80.8722 315° West 218 251 3,500 -987 Descending FAA TRACON SMA TRACON (SMA)
Mon 07:14:35 PM 35.0772 -80.9044 336° Northwest 193 222 3,000 -741 Descending FAA TRACON SMA TRACON (SMA)
Mon 07:15:16 PM 35.1056 -80.9200 336° Northwest 164 189 2,500 -732 Descending FAA TRACON SMA TRACON (SMA)

Login

Don't have an account? Register now (free) for customized features, flight alerts, and more!